createdAt,value
2018-08-13T00:01:47.691Z,23.08
2018-08-13T00:04:16.451Z,23.09
2018-08-13T00:06:45.268Z,22.99
2018-08-13T00:09:18.128Z,22.91
2018-08-13T00:11:47.037Z,22.84
2018-08-13T00:14:15.836Z,22.49
2018-08-13T00:16:44.610Z,22.49
2018-08-13T00:19:13.407Z,22.34
2018-08-13T00:21:42.127Z,22.38
2018-08-13T00:24:10.895Z,22.24
2018-08-13T00:26:39.634Z,22.15
2018-08-13T00:29:08.426Z,22.08
2018-08-13T00:31:37.229Z,22.15
2018-08-13T00:34:06.067Z,22.01
2018-08-13T00:36:34.907Z,22.06
2018-08-13T00:39:03.793Z,21.62
2018-08-13T00:41:32.597Z,21.56
2018-08-13T00:44:01.387Z,21.31
2018-08-13T00:46:30.160Z,21.27
2018-08-13T00:48:58.937Z,21.18
2018-08-13T00:51:27.755Z,21.15
2018-08-13T00:53:56.556Z,21.33
2018-08-13T00:56:25.462Z,21.43
2018-08-13T00:58:54.272Z,21.40
2018-08-13T01:01:23.083Z,21.38
2018-08-13T01:03:52.326Z,21.35
2018-08-13T01:06:21.119Z,21.37
2018-08-13T01:08:49.971Z,21.39
2018-08-13T01:11:19.058Z,21.52
2018-08-13T01:13:47.850Z,21.56
2018-08-13T01:16:16.669Z,21.54
2018-08-13T01:18:45.486Z,21.52
2018-08-13T01:21:14.275Z,21.51
2018-08-13T01:23:43.102Z,21.53
2018-08-13T01:26:11.959Z,21.53
2018-08-13T01:28:40.714Z,21.37
2018-08-13T01:31:09.409Z,21.38
2018-08-13T01:33:38.192Z,21.55
2018-08-13T01:36:07.111Z,21.54
2018-08-13T01:38:35.864Z,21.48
2018-08-13T01:41:04.675Z,21.61
2018-08-13T01:43:33.421Z,21.78
2018-08-13T01:46:02.192Z,21.72
2018-08-13T01:48:30.969Z,21.54
2018-08-13T01:50:59.734Z,21.62
2018-08-13T01:53:28.509Z,21.58
2018-08-13T01:55:57.291Z,21.61
2018-08-13T01:58:26.040Z,21.60
2018-08-13T02:00:54.797Z,21.51
2018-08-13T02:03:23.559Z,21.45
2018-08-13T02:05:52.334Z,21.45
2018-08-13T02:08:21.067Z,21.53
2018-08-13T02:10:49.852Z,21.48
2018-08-13T02:13:18.610Z,21.45
2018-08-13T02:15:47.389Z,21.36
2018-08-13T02:18:16.177Z,21.24
2018-08-13T02:20:44.997Z,21.27
2018-08-13T02:23:13.758Z,21.28
2018-08-13T02:25:42.522Z,21.22
2018-08-13T02:28:11.311Z,21.15
2018-08-13T02:30:40.016Z,21.13
2018-08-13T02:33:08.829Z,21.17
2018-08-13T02:35:37.593Z,21.01
2018-08-13T02:38:06.317Z,21.05
2018-08-13T02:40:35.184Z,20.97
2018-08-13T02:43:03.964Z,21.00
2018-08-13T02:45:32.731Z,21.10
2018-08-13T02:48:01.534Z,21.10
2018-08-13T02:50:30.356Z,21.04
2018-08-13T02:52:59.192Z,21.07
2018-08-13T02:55:28.091Z,21.08
2018-08-13T02:57:56.992Z,21.05
2018-08-13T03:00:25.807Z,21.05
2018-08-13T03:02:54.644Z,21.04
2018-08-13T03:05:23.349Z,21.04
2018-08-13T03:07:52.109Z,20.91
2018-08-13T03:10:20.914Z,20.98
2018-08-13T03:12:49.717Z,20.95
2018-08-13T03:15:18.518Z,20.86
2018-08-13T03:17:47.467Z,20.80
2018-08-13T03:20:16.244Z,20.64
2018-08-13T03:22:45.010Z,20.57
2018-08-13T03:25:13.797Z,20.46
2018-08-13T03:27:42.589Z,20.37
2018-08-13T03:30:12.855Z,20.11
2018-08-13T03:32:42.160Z,20.16
2018-08-13T03:35:11.109Z,20.23
2018-08-13T03:37:40.024Z,19.90
2018-08-13T03:40:10.926Z,19.93
2018-08-13T03:42:39.839Z,19.94
2018-08-13T03:45:10.445Z,19.79
2018-08-13T03:47:39.615Z,19.82
2018-08-13T03:50:09.784Z,19.81
2018-08-13T03:52:38.640Z,19.88
2018-08-13T03:55:09.045Z,19.89
2018-08-13T03:57:37.874Z,19.97
2018-08-13T04:00:10.550Z,20.28
2018-08-13T04:02:39.413Z,20.30
2018-08-13T04:05:08.876Z,20.10
2018-08-13T04:07:38.335Z,19.99
2018-08-13T04:10:10.178Z,20.14
2018-08-13T04:12:40.792Z,20.15
2018-08-13T04:15:10.960Z,20.27
2018-08-13T04:17:39.727Z,19.86
2018-08-13T04:20:10.012Z,19.90
2018-08-13T04:22:38.858Z,19.88
2018-08-13T04:25:08.900Z,19.94
2018-08-13T04:27:38.243Z,19.96
2018-08-13T04:30:10.266Z,19.87
2018-08-13T04:32:39.064Z,20.00
2018-08-13T04:35:07.874Z,20.04
2018-08-13T04:37:36.648Z,20.16
2018-08-13T04:40:08.262Z,20.24
2018-08-13T04:42:37.052Z,20.36
2018-08-13T04:45:07.445Z,20.49
2018-08-13T04:47:36.375Z,20.77
2018-08-13T04:50:06.377Z,20.93
2018-08-13T04:52:35.139Z,21.10
2018-08-13T04:55:04.094Z,21.21
2018-08-13T04:57:32.910Z,21.50
2018-08-13T05:00:01.695Z,21.48
2018-08-13T05:02:30.581Z,21.67
2018-08-13T05:04:59.342Z,21.70
2018-08-13T05:07:28.213Z,21.71
2018-08-13T05:09:57.061Z,21.93
2018-08-13T05:12:25.935Z,21.96
2018-08-13T05:14:54.726Z,22.04
2018-08-13T05:17:23.592Z,22.07
2018-08-13T05:19:52.402Z,22.02
2018-08-13T05:22:21.212Z,22.21
2018-08-13T05:24:50.039Z,22.01
2018-08-13T05:27:18.819Z,22.22
2018-08-13T05:29:47.597Z,22.33
2018-08-13T05:32:16.383Z,22.40
2018-08-13T05:34:45.158Z,22.30
2018-08-13T05:37:13.959Z,22.46
2018-08-13T05:39:42.762Z,22.59
2018-08-13T05:42:11.587Z,22.43
2018-08-13T05:44:40.372Z,22.89
2018-08-13T05:47:09.445Z,22.63
2018-08-13T05:49:38.270Z,22.59
2018-08-13T05:52:07.074Z,22.87
2018-08-13T05:54:35.874Z,22.74
2018-08-13T05:57:04.678Z,22.55
2018-08-13T05:59:33.591Z,22.75
2018-08-13T06:02:02.533Z,22.65
2018-08-13T06:04:31.699Z,23.10
2018-08-13T06:07:00.575Z,23.03
2018-08-13T06:09:29.424Z,22.94
2018-08-13T06:11:58.212Z,22.85
2018-08-13T06:14:27.141Z,22.87
2018-08-13T06:16:56.036Z,22.84
2018-08-13T06:19:25.431Z,23.09
2018-08-13T06:21:54.217Z,23.21
2018-08-13T06:24:23.174Z,23.24
2018-08-13T06:26:52.721Z,23.44
2018-08-13T06:29:21.716Z,23.66
2018-08-13T06:31:53.206Z,23.36
2018-08-13T06:34:23.283Z,23.58
2018-08-13T06:36:53.733Z,23.60
2018-08-13T06:39:22.963Z,23.92
2018-08-13T06:41:55.119Z,24.25
2018-08-13T06:44:24.435Z,24.06
2018-08-13T06:46:59.806Z,23.75
2018-08-13T06:49:29.502Z,23.94
2018-08-13T06:51:59.432Z,24.32
2018-08-13T06:54:32.725Z,25.11
2018-08-13T06:57:01.681Z,25.06
2018-08-13T06:59:30.686Z,25.01
2018-08-13T07:02:00.113Z,25.12
2018-08-13T07:04:29.315Z,24.57
2018-08-13T07:06:59.591Z,24.78
2018-08-13T07:09:33.876Z,24.45
2018-08-13T07:12:17.296Z,24.83
2018-08-13T07:14:53.876Z,25.76
2018-08-13T07:17:28.239Z,25.71
2018-08-13T07:20:41.961Z,25.54
2018-08-13T07:27:52.195Z,25.85
2018-08-13T07:33:15.822Z,26.42
2018-08-13T07:35:44.792Z,26.24
2018-08-13T07:38:13.724Z,26.26
2018-08-13T07:40:42.836Z,26.03
2018-08-13T07:43:12.386Z,26.51
2018-08-13T07:45:41.719Z,26.33
2018-08-13T07:48:12.564Z,26.75
2018-08-13T07:53:24.912Z,26.78
2018-08-13T07:55:55.274Z,26.93
2018-08-13T07:58:25.278Z,27.12
2018-08-13T08:01:10.546Z,27.02
2018-08-13T08:03:48.859Z,26.88
2018-08-13T08:06:17.935Z,27.10
2018-08-13T08:08:47.443Z,26.92
2018-08-13T08:11:24.099Z,27.33
2018-08-13T08:14:03.567Z,27.52
2018-08-13T08:16:44.937Z,27.53
2018-08-13T08:19:16.726Z,28.34
2018-08-13T08:21:49.252Z,28.10
2018-08-13T08:24:18.050Z,28.28
2018-08-13T08:26:50.444Z,28.05
2018-08-13T08:29:19.375Z,28.40
2018-08-13T08:31:51.218Z,28.65
2018-08-13T08:34:20.041Z,28.19
2018-08-13T08:36:49.292Z,28.54
2018-08-13T08:54:46.752Z,28.27
2018-08-13T08:57:15.537Z,28.40
2018-08-13T08:59:44.427Z,28.35
2018-08-13T09:02:13.268Z,28.19
2018-08-13T09:04:42.054Z,28.24
2018-08-13T09:07:10.935Z,28.76
2018-08-13T09:09:39.737Z,29.17
2018-08-13T09:12:10.135Z,29.56
2018-08-13T09:14:38.986Z,29.70
2018-08-13T09:17:07.957Z,29.74
2018-08-13T09:19:47.894Z,29.70
2018-08-13T09:22:27.850Z,30.12
2018-08-13T09:25:07.670Z,30.80
2018-08-13T09:27:47.601Z,30.32
2018-08-13T09:30:27.475Z,30.62
2018-08-13T09:33:07.566Z,30.58
2018-08-13T09:35:36.415Z,30.63
2018-08-13T09:38:05.660Z,31.29
2018-08-13T09:40:34.853Z,30.21
2018-08-13T09:43:03.827Z,30.20
2018-08-13T09:45:32.711Z,31.04
2018-08-13T09:48:01.531Z,30.34
2018-08-13T09:50:30.320Z,30.75
2018-08-13T09:52:59.205Z,31.37
2018-08-13T09:55:28.150Z,31.67
2018-08-13T09:57:56.922Z,31.97
2018-08-13T10:00:30.808Z,32.06
2018-08-13T10:02:59.601Z,32.30
2018-08-13T10:05:28.427Z,31.86
2018-08-13T10:07:57.240Z,31.98
2018-08-13T10:10:26.078Z,32.10
2018-08-13T10:12:54.948Z,31.99
2018-08-13T10:15:23.762Z,32.27
2018-08-13T10:17:52.665Z,32.13
2018-08-13T10:20:22.079Z,31.54
2018-08-13T10:22:50.998Z,32.09
2018-08-13T10:25:19.832Z,32.31
2018-08-13T10:27:48.693Z,33.21
2018-08-13T10:30:18.051Z,32.91
2018-08-13T10:32:47.271Z,32.45
2018-08-13T10:35:16.146Z,33.00
2018-08-13T10:37:45.161Z,33.13
2018-08-13T10:40:17.117Z,32.89
2018-08-13T10:42:46.410Z,32.85
2018-08-13T10:45:15.515Z,32.11
2018-08-13T10:47:44.385Z,32.37
2018-08-13T10:50:14.334Z,32.58
2018-08-13T10:52:43.499Z,31.99
2018-08-13T10:55:14.710Z,32.70
2018-08-13T10:57:44.032Z,32.95
2018-08-13T11:00:16.269Z,33.46
2018-08-13T11:02:45.478Z,33.54
2018-08-13T11:05:15.344Z,33.10
2018-08-13T11:07:44.338Z,32.58
2018-08-13T11:10:15.445Z,33.78
2018-08-13T11:12:44.403Z,33.97
2018-08-13T11:15:16.967Z,33.49
2018-08-13T11:17:46.007Z,32.85
2018-08-13T11:20:14.943Z,32.57
2018-08-13T11:22:44.106Z,32.96
2018-08-13T11:25:14.607Z,32.50
2018-08-13T11:27:43.842Z,32.59
2018-08-13T11:30:15.453Z,32.91
2018-08-13T11:32:44.397Z,32.78
2018-08-13T11:35:13.781Z,32.76
2018-08-13T11:37:42.712Z,33.33
2018-08-13T11:40:14.838Z,34.05
2018-08-13T11:42:43.800Z,34.20
2018-08-13T11:45:12.643Z,33.91
2018-08-13T11:47:41.838Z,34.16
2018-08-13T11:50:17.668Z,33.84
2018-08-13T11:52:48.836Z,34.02
2018-08-13T11:55:18.304Z,34.06
2018-08-13T11:57:48.279Z,34.31
2018-08-13T12:00:17.118Z,34.39
2018-08-13T12:02:46.088Z,33.68
2018-08-13T12:05:15.994Z,33.92
2018-08-13T12:07:45.516Z,33.61
2018-08-13T12:10:14.965Z,33.54
2018-08-13T12:12:44.275Z,34.10
2018-08-13T12:15:13.915Z,34.89
2018-08-13T12:17:43.274Z,34.75
2018-08-13T12:20:17.281Z,34.61
2018-08-13T12:22:46.556Z,34.63
2018-08-13T12:25:18.770Z,34.77
2018-08-13T12:27:47.655Z,34.87
2018-08-13T12:30:16.705Z,34.42
2018-08-13T12:32:45.622Z,34.89
2018-08-13T12:35:14.573Z,34.89
2018-08-13T12:37:43.481Z,35.48
2018-08-13T12:40:12.464Z,34.66
2018-08-13T12:42:41.398Z,34.95
2018-08-13T12:45:13.457Z,34.84
2018-08-13T12:47:42.409Z,34.86
2018-08-13T12:50:13.017Z,34.97
2018-08-13T12:52:42.723Z,35.15
2018-08-13T12:55:12.029Z,34.83
2018-08-13T12:57:40.972Z,34.50
2018-08-13T13:00:11.834Z,34.61
2018-08-13T13:02:41.072Z,33.94
2018-08-13T13:05:11.128Z,33.74
2018-08-13T13:07:40.107Z,34.31
2018-08-13T13:10:11.460Z,34.19
2018-08-13T13:12:40.880Z,34.95
2018-08-13T13:15:11.502Z,34.22
2018-08-13T13:17:40.813Z,33.26
2018-08-13T13:20:16.764Z,33.91
2018-08-13T13:22:45.801Z,33.90
2018-08-13T13:25:14.672Z,33.29
2018-08-13T13:27:43.480Z,33.64
2018-08-13T13:30:13.845Z,33.11
2018-08-13T13:32:42.995Z,33.51
2018-08-13T13:35:13.503Z,33.03
2018-08-13T13:37:42.474Z,32.86
2018-08-13T13:40:13.124Z,33.08
2018-08-13T13:42:42.688Z,32.77
2018-08-13T13:45:12.252Z,32.82
2018-08-13T13:47:41.244Z,32.53
2018-08-13T13:50:12.691Z,32.37
2018-08-13T13:52:41.794Z,32.44
2018-08-13T13:55:10.730Z,32.48
2018-08-13T13:57:39.596Z,32.40
2018-08-13T14:00:15.222Z,32.70
2018-08-13T14:02:44.256Z,32.52
2018-08-13T14:05:13.324Z,32.63
2018-08-13T14:07:42.596Z,32.37
2018-08-13T14:10:14.145Z,32.91
2018-08-13T14:12:43.383Z,32.86
2018-08-13T14:15:13.780Z,32.56
2018-08-13T14:17:43.160Z,32.63
2018-08-13T14:20:12.255Z,32.23
2018-08-13T14:22:41.496Z,32.20
2018-08-13T14:25:12.262Z,32.35
2018-08-13T14:27:41.455Z,33.47
2018-08-13T14:30:15.036Z,33.95
2018-08-13T14:32:43.946Z,33.08
2018-08-13T14:35:12.802Z,32.36
2018-08-13T14:37:42.025Z,32.68
2018-08-13T14:40:12.494Z,33.10
2018-08-13T14:42:41.837Z,33.30
2018-08-13T14:45:12.323Z,33.03
2018-08-13T14:47:42.255Z,33.61
2018-08-13T14:50:11.931Z,33.03
2018-08-13T14:52:42.327Z,32.93
2018-08-13T14:55:11.691Z,32.90
2018-08-13T14:57:40.662Z,32.67
2018-08-13T15:00:27.010Z,32.69
2018-08-13T15:02:56.344Z,32.59
2018-08-13T15:05:25.186Z,33.62
2018-08-13T15:07:54.117Z,33.69
2018-08-13T15:10:24.151Z,34.30
2018-08-13T15:12:53.163Z,34.63
2018-08-13T15:15:22.102Z,33.01
2018-08-13T15:17:51.066Z,32.26
2018-08-13T15:20:22.817Z,31.93
2018-08-13T15:22:51.846Z,33.08
2018-08-13T15:25:20.822Z,32.78
2018-08-13T15:27:49.773Z,33.81
2018-08-13T15:30:19.406Z,32.41
2018-08-13T15:32:49.115Z,31.88
2018-08-13T15:35:17.951Z,31.81
2018-08-13T15:37:47.468Z,32.95
2018-08-13T15:40:16.421Z,32.26
2018-08-13T15:42:45.213Z,32.02
2018-08-13T15:45:16.451Z,31.84
2018-08-13T15:47:45.559Z,31.71
2018-08-13T15:50:16.202Z,31.65
2018-08-13T15:52:45.461Z,31.57
2018-08-13T15:55:14.542Z,32.03
2018-08-13T15:57:44.011Z,31.22
2018-08-13T16:00:22.671Z,31.19
2018-08-13T16:02:51.835Z,31.24
2018-08-13T16:05:20.967Z,31.14
2018-08-13T16:07:50.252Z,31.02
2018-08-13T16:10:19.530Z,31.13
2018-08-13T16:12:48.397Z,31.21
2018-08-13T16:15:17.319Z,31.29
2018-08-13T16:17:46.199Z,31.10
2018-08-13T16:20:16.947Z,31.18
2018-08-13T16:22:46.483Z,31.73
2018-08-13T16:25:15.707Z,31.51
2018-08-13T16:27:45.211Z,31.87
2018-08-13T16:30:24.007Z,31.69
2018-08-13T16:32:52.940Z,31.47
2018-08-13T16:35:22.566Z,31.80
2018-08-13T16:37:51.515Z,31.96
2018-08-13T16:40:20.701Z,31.37
2018-08-13T16:42:50.116Z,31.60
2018-08-13T16:45:19.968Z,31.31
2018-08-13T16:47:48.787Z,30.95
2018-08-13T16:50:25.366Z,30.98
2018-08-13T16:52:54.339Z,31.12
2018-08-13T16:55:24.082Z,30.65
2018-08-13T16:57:52.917Z,30.28
2018-08-13T17:00:24.720Z,30.08
2018-08-13T17:02:53.774Z,30.06
2018-08-13T17:05:22.736Z,30.18
2018-08-13T17:07:51.803Z,30.05
2018-08-13T17:10:23.611Z,30.08
2018-08-13T17:12:53.175Z,29.88
2018-08-13T17:15:22.225Z,29.70
2018-08-13T17:17:52.672Z,29.70
2018-08-13T17:20:26.574Z,29.78
2018-08-13T17:22:55.511Z,29.56
2018-08-13T17:25:24.396Z,29.73
2018-08-13T17:27:53.306Z,29.88
2018-08-13T17:30:23.800Z,29.69
2018-08-13T17:32:53.842Z,29.62
2018-08-13T17:35:28.761Z,29.53
2018-08-13T17:37:57.819Z,29.36
2018-08-13T17:40:26.913Z,29.51
2018-08-13T17:42:56.429Z,29.26
2018-08-13T17:45:25.424Z,29.47
2018-08-13T17:47:54.382Z,29.29
2018-08-13T17:50:23.797Z,29.41
2018-08-13T17:52:52.726Z,29.59
2018-08-13T17:55:21.595Z,29.36
2018-08-13T17:57:50.536Z,29.05
2018-08-13T18:00:21.719Z,29.04
2018-08-13T18:02:50.568Z,29.22
2018-08-13T18:05:21.482Z,29.04
2018-08-13T18:07:50.704Z,29.14
2018-08-13T18:10:22.508Z,29.09
2018-08-13T18:12:51.422Z,29.11
2018-08-13T18:15:20.485Z,29.11
2018-08-13T18:17:49.636Z,29.11
2018-08-13T18:20:18.709Z,29.06
2018-08-13T18:22:47.689Z,29.12
2018-08-13T18:25:17.020Z,29.08
2018-08-13T18:27:47.285Z,28.98
2018-08-13T18:30:19.992Z,28.86
2018-08-13T18:32:49.004Z,28.90
2018-08-13T18:35:18.145Z,28.90
2018-08-13T18:37:47.207Z,28.77
2018-08-13T18:40:19.376Z,28.59
2018-08-13T18:42:48.412Z,28.56
2018-08-13T18:45:17.463Z,28.47
2018-08-13T18:47:47.229Z,28.40
2018-08-13T18:50:18.298Z,28.42
2018-08-13T18:52:48.087Z,28.35
2018-08-13T18:55:18.301Z,28.24
2018-08-13T18:57:47.658Z,27.78
2018-08-13T19:00:18.773Z,27.35
2018-08-13T19:02:47.860Z,27.15
2018-08-13T19:05:18.293Z,27.08
2018-08-13T19:07:47.719Z,27.03
2018-08-13T19:10:17.328Z,27.30
2018-08-13T19:12:46.361Z,27.03
2018-08-13T19:15:19.222Z,26.86
2018-08-13T19:17:48.315Z,26.78
2018-08-13T19:20:17.284Z,26.54
2018-08-13T19:22:46.333Z,26.46
2018-08-13T19:25:18.806Z,26.70
2018-08-13T19:27:47.777Z,26.64
2018-08-13T19:30:17.744Z,26.59
2018-08-13T19:32:47.801Z,26.45
2018-08-13T19:35:16.662Z,26.54
2018-08-13T19:37:45.701Z,26.56
2018-08-13T19:40:16.655Z,26.48
2018-08-13T19:42:46.501Z,26.42
2018-08-13T19:45:16.480Z,26.47
2018-08-13T19:47:45.891Z,26.55
2018-08-13T19:50:14.931Z,26.05
2018-08-13T19:52:45.037Z,25.60
2018-08-13T19:55:14.370Z,25.45
2018-08-13T19:57:43.183Z,25.38
2018-08-13T20:00:21.701Z,25.43
2018-08-13T20:02:51.174Z,25.42
2018-08-13T20:05:21.441Z,25.53
2018-08-13T20:07:50.486Z,25.33
2018-08-13T20:10:19.354Z,25.48
2018-08-13T20:12:48.410Z,25.15
2018-08-13T20:15:17.352Z,25.15
2018-08-13T20:17:46.433Z,25.01
2018-08-13T20:20:16.558Z,24.88
2018-08-13T20:22:46.217Z,24.92
2018-08-13T20:25:16.311Z,24.89
2018-08-13T20:27:45.735Z,25.03
2018-08-13T20:30:16.766Z,24.94
2018-08-13T20:32:46.919Z,25.08
2018-08-13T20:35:15.818Z,25.25
2018-08-13T20:37:45.118Z,25.14
2018-08-13T20:40:15.891Z,25.00
2018-08-13T20:42:45.248Z,24.99
2018-08-13T20:45:16.069Z,25.06
2018-08-13T20:47:45.280Z,24.99
2018-08-13T20:50:15.998Z,24.96
2018-08-13T20:52:45.443Z,24.86
2018-08-13T20:55:17.584Z,24.79
2018-08-13T20:57:47.169Z,24.68
2018-08-13T21:00:17.439Z,24.33
2018-08-13T21:02:47.271Z,24.28
2018-08-13T21:05:16.679Z,24.23
2018-08-13T21:07:46.458Z,24.45
2018-08-13T21:10:17.957Z,24.33
2018-08-13T21:12:46.849Z,24.75
2018-08-13T21:15:16.216Z,24.27
2018-08-13T21:17:45.231Z,23.93
2018-08-13T21:20:22.451Z,24.07
2018-08-13T21:22:51.445Z,24.03
2018-08-13T21:25:20.375Z,24.06
2018-08-13T21:27:49.291Z,24.01
2018-08-13T21:30:18.272Z,24.00
2018-08-13T21:32:47.449Z,23.88
2018-08-13T21:35:17.345Z,23.77
2018-08-13T21:37:46.522Z,23.83
2018-08-13T21:40:15.402Z,23.84
2018-08-13T21:42:44.682Z,23.87
2018-08-13T21:45:13.767Z,23.77
2018-08-13T21:47:42.624Z,23.77
2018-08-13T21:50:18.950Z,23.64
2018-08-13T21:52:48.406Z,23.55
2018-08-13T21:55:17.295Z,23.51
2018-08-13T21:57:46.209Z,23.49
2018-08-13T22:00:20.520Z,23.43
2018-08-13T22:02:49.606Z,23.17
2018-08-13T22:05:18.451Z,23.19
2018-08-13T22:07:47.581Z,23.33
2018-08-13T22:10:16.836Z,23.07
2018-08-13T22:12:45.706Z,23.07
2018-08-13T22:15:21.515Z,22.90
2018-08-13T22:17:50.299Z,22.90
2018-08-13T22:20:19.133Z,23.06
2018-08-13T22:22:48.335Z,22.96
2018-08-13T22:25:22.135Z,22.99
2018-08-13T22:27:50.999Z,23.28
2018-08-13T22:30:19.839Z,23.07
2018-08-13T22:32:48.674Z,23.04
2018-08-13T22:35:17.585Z,23.16
2018-08-13T22:37:46.467Z,23.21
2018-08-13T22:40:17.562Z,23.09
2018-08-13T22:42:46.591Z,22.92
2018-08-13T22:45:17.517Z,22.56
2018-08-13T22:47:46.350Z,22.42
2018-08-13T22:50:15.313Z,22.36
2018-08-13T22:52:44.120Z,22.34
2018-08-13T22:55:14.309Z,22.30
2018-08-13T22:57:43.142Z,22.25
2018-08-13T23:00:14.924Z,22.25
2018-08-13T23:02:44.452Z,22.29
2018-08-13T23:05:15.889Z,22.32
2018-08-13T23:07:44.720Z,22.25
2018-08-13T23:10:16.166Z,22.35
2018-08-13T23:12:45.791Z,22.53
2018-08-13T23:15:15.674Z,22.54
2018-08-13T23:17:44.815Z,22.50
2018-08-13T23:20:18.447Z,22.36
2018-08-13T23:22:50.159Z,22.36
2018-08-13T23:25:20.247Z,22.41
2018-08-13T23:27:50.487Z,22.50
2018-08-13T23:30:19.372Z,22.55
2018-08-13T23:32:49.402Z,22.54
2018-08-13T23:35:19.244Z,22.75
2018-08-13T23:37:48.296Z,22.78
2018-08-13T23:40:17.193Z,22.74
2018-08-13T23:42:46.074Z,22.63
2018-08-13T23:45:19.165Z,22.71
2018-08-13T23:47:48.054Z,22.72
2018-08-13T23:50:18.756Z,22.72
2018-08-13T23:52:48.307Z,22.79
2018-08-13T23:55:26.087Z,22.87
2018-08-13T23:57:55.354Z,23.00
